createdAt,value
2022-09-28T00:01:22.174Z,8.43
2022-09-28T00:03:50.841Z,11.57
2022-09-28T00:06:20.197Z,10.73
2022-09-28T00:08:47.180Z,11.77
2022-09-28T00:11:15.535Z,8.90
2022-09-28T00:13:43.130Z,15.20
2022-09-28T00:16:14.274Z,11.83
2022-09-28T00:18:41.714Z,9.37
2022-09-28T00:21:17.129Z,8.73
2022-09-28T00:24:03.165Z,10.00
2022-09-28T00:26:32.430Z,8.10
2022-09-28T00:29:01.689Z,19.07
2022-09-28T00:31:31.860Z,8.67
2022-09-28T00:34:00.469Z,10.53
2022-09-28T00:36:29.699Z,9.20
2022-09-28T00:38:56.873Z,10.80
2022-09-28T00:41:24.730Z,11.50
2022-09-28T00:43:51.999Z,12.93
2022-09-28T00:46:32.430Z,9.93
2022-09-28T00:49:14.899Z,10.93
2022-09-28T00:51:44.585Z,10.47
2022-09-28T00:54:12.810Z,9.30
2022-09-28T00:56:42.823Z,9.77
2022-09-28T00:59:09.756Z,9.20
2022-09-28T01:01:36.917Z,11.37
2022-09-28T01:04:04.956Z,8.77
2022-09-28T01:06:34.726Z,10.03
2022-09-28T01:09:07.798Z,9.20
2022-09-28T01:11:38.676Z,9.20
2022-09-28T01:14:10.090Z,9.83
2022-09-28T01:16:49.139Z,10.13
2022-09-28T01:19:16.075Z,10.50
2022-09-28T01:21:45.489Z,10.30
2022-09-28T01:25:00.857Z,10.67
2022-09-28T01:27:50.862Z,9.57
2022-09-28T01:30:21.160Z,11.83
2022-09-28T01:33:08.598Z,13.30
2022-09-28T01:35:57.513Z,11.27
2022-09-28T01:38:33.375Z,11.67
2022-09-28T01:41:00.988Z,11.57
2022-09-28T01:43:29.346Z,12.47
2022-09-28T01:46:02.145Z,11.90
2022-09-28T01:48:39.507Z,11.90
2022-09-28T01:51:14.739Z,13.07
2022-09-28T01:53:48.558Z,14.23
2022-09-28T01:56:22.829Z,13.23
2022-09-28T01:58:55.210Z,17.77
2022-09-28T02:01:29.599Z,15.60
2022-09-28T02:04:04.143Z,13.43
2022-09-28T02:06:38.955Z,14.00
2022-09-28T02:09:16.058Z,14.53
2022-09-28T02:11:49.574Z,15.53
2022-09-28T02:14:18.462Z,15.60
2022-09-28T02:16:47.886Z,14.90
2022-09-28T02:19:28.249Z,14.27
2022-09-28T02:22:13.531Z,15.63
2022-09-28T02:24:54.190Z,14.47
2022-09-28T02:27:28.659Z,16.20
2022-09-28T02:29:55.361Z,14.63
2022-09-28T02:32:23.294Z,15.67
2022-09-28T02:34:49.859Z,16.23
2022-09-28T02:37:16.615Z,16.40
2022-09-28T02:39:43.172Z,16.83
2022-09-28T02:42:28.284Z,17.27
2022-09-28T02:45:26.601Z,16.87
2022-09-28T02:48:19.104Z,15.53
2022-09-28T02:51:10.669Z,15.83
2022-09-28T02:54:04.820Z,16.03
2022-09-28T02:56:38.934Z,16.30
2022-09-28T02:59:25.625Z,17.13
2022-09-28T03:01:58.107Z,15.87
2022-09-28T03:04:49.446Z,15.73
2022-09-28T03:07:28.981Z,15.33
2022-09-28T03:10:20.793Z,17.10
2022-09-28T03:12:49.545Z,14.33
2022-09-28T03:15:26.388Z,15.80
2022-09-28T03:17:53.574Z,15.13
2022-09-28T03:20:20.950Z,15.13
2022-09-28T03:23:05.907Z,15.90
2022-09-28T03:25:34.240Z,15.27
2022-09-28T03:28:00.974Z,14.10
2022-09-28T03:30:27.854Z,15.97
2022-09-28T03:33:00.873Z,16.13
2022-09-28T03:35:27.367Z,16.40
2022-09-28T03:37:57.663Z,16.33
2022-09-28T03:40:24.443Z,15.40
2022-09-28T03:42:51.059Z,14.17
2022-09-28T03:45:17.571Z,14.80
2022-09-28T03:47:47.290Z,18.20
2022-09-28T03:50:15.340Z,15.83
2022-09-28T03:52:42.542Z,20.53
2022-09-28T03:55:09.968Z,18.17
2022-09-28T03:57:36.899Z,18.67
2022-09-28T04:00:05.572Z,20.13
2022-09-28T04:02:32.202Z,21.63
2022-09-28T04:04:58.747Z,24.13
2022-09-28T04:07:29.033Z,26.00
2022-09-28T04:09:57.713Z,26.67
2022-09-28T04:12:24.317Z,24.60
2022-09-28T04:14:51.048Z,23.53
2022-09-28T04:17:17.638Z,21.87
2022-09-28T04:19:44.220Z,20.07
2022-09-28T04:22:10.834Z,23.03
2022-09-28T04:24:37.434Z,22.47
2022-09-28T04:27:22.269Z,21.63
2022-09-28T04:29:49.606Z,19.30
2022-09-28T04:32:16.356Z,22.37
2022-09-28T04:34:44.329Z,20.97
2022-09-28T04:37:11.242Z,22.80
2022-09-28T04:39:38.062Z,21.23
2022-09-28T04:42:04.708Z,19.93
2022-09-28T04:44:31.320Z,19.07
2022-09-28T04:47:02.890Z,21.70
2022-09-28T04:49:32.221Z,22.77
2022-09-28T04:51:58.846Z,19.20
2022-09-28T04:54:25.436Z,22.37
2022-09-28T04:56:53.338Z,25.23
2022-09-28T04:59:20.044Z,23.40
2022-09-28T05:01:47.580Z,22.80
2022-09-28T05:04:14.169Z,19.33
2022-09-28T05:06:40.900Z,21.10
2022-09-28T05:09:07.641Z,22.47
2022-09-28T05:11:34.168Z,20.93
2022-09-28T05:14:01.116Z,22.77
2022-09-28T05:16:28.629Z,19.83
2022-09-28T05:18:58.261Z,21.43
2022-09-28T05:21:26.468Z,22.60
2022-09-28T05:23:56.175Z,18.23
2022-09-28T05:26:23.385Z,18.73
2022-09-28T05:28:50.898Z,19.97
2022-09-28T05:31:17.649Z,21.40
2022-09-28T05:33:44.372Z,22.20
2022-09-28T05:36:11.197Z,21.07
2022-09-28T05:38:37.883Z,22.07
2022-09-28T05:41:06.689Z,23.27
2022-09-28T05:43:33.768Z,23.07
2022-09-28T05:46:00.555Z,21.47
2022-09-28T05:48:27.795Z,23.20
2022-09-28T05:50:54.393Z,22.40
2022-09-28T05:53:21.068Z,22.47
2022-09-28T05:55:47.863Z,23.57
2022-09-28T05:58:14.597Z,24.13
2022-09-28T06:00:41.252Z,24.17
2022-09-28T06:03:11.878Z,24.03
2022-09-28T06:05:39.996Z,27.00
2022-09-28T06:08:08.575Z,25.63
2022-09-28T06:10:35.639Z,22.33
2022-09-28T06:13:02.915Z,21.33
2022-09-28T06:15:32.478Z,22.53
2022-09-28T06:18:05.012Z,22.60
2022-09-28T06:20:35.785Z,23.23
2022-09-28T06:23:02.723Z,25.57
2022-09-28T06:25:29.714Z,21.10
2022-09-28T06:28:00.264Z,23.57
2022-09-28T06:30:28.568Z,24.23
2022-09-28T06:32:57.318Z,21.70
2022-09-28T06:35:25.630Z,21.73
2022-09-28T06:37:53.268Z,21.30
2022-09-28T06:40:21.437Z,22.73
2022-09-28T06:43:01.737Z,21.13
2022-09-28T06:45:30.018Z,21.40
2022-09-28T06:48:01.151Z,23.27
2022-09-28T06:50:32.336Z,22.37
2022-09-28T06:53:00.299Z,20.30
2022-09-28T06:55:27.991Z,20.20
2022-09-28T06:58:05.099Z,20.77
2022-09-28T07:00:34.915Z,21.83
2022-09-28T07:03:18.474Z,20.77
2022-09-28T07:05:48.673Z,20.77
2022-09-28T07:08:16.414Z,20.30
2022-09-28T07:10:50.793Z,20.90
2022-09-28T07:13:45.622Z,20.37
2022-09-28T07:16:04.438Z,20.40
2022-09-28T07:18:31.046Z,19.37
2022-09-28T07:20:58.186Z,18.80
2022-09-28T07:23:27.754Z,19.60
2022-09-28T07:25:54.764Z,20.87
2022-09-28T07:28:22.543Z,18.50
2022-09-28T07:30:49.208Z,19.73
2022-09-28T07:33:17.243Z,19.83
2022-09-28T07:35:54.042Z,20.50
2022-09-28T07:38:20.813Z,19.77
2022-09-28T07:41:20.139Z,22.20
2022-09-28T07:43:46.707Z,22.77
2022-09-28T07:46:13.336Z,23.80
2022-09-28T07:48:41.603Z,22.23
2022-09-28T07:51:09.509Z,23.17
2022-09-28T07:53:38.483Z,22.20
2022-09-28T07:56:08.714Z,19.00
2022-09-28T07:58:37.302Z,19.17
2022-09-28T08:01:10.560Z,21.20
2022-09-28T08:03:38.715Z,19.67
2022-09-28T08:06:09.879Z,18.53
2022-09-28T08:08:37.291Z,20.33
2022-09-28T08:11:06.409Z,17.47
2022-09-28T08:13:32.951Z,17.20
2022-09-28T08:16:03.204Z,17.40
2022-09-28T08:18:31.133Z,18.40
2022-09-28T08:21:16.448Z,19.10
2022-09-28T08:23:43.097Z,17.87
2022-09-28T08:26:13.403Z,16.37
2022-09-28T08:28:43.269Z,16.30
2022-09-28T08:31:10.089Z,15.60
2022-09-28T08:33:37.058Z,14.63
2022-09-28T08:36:04.484Z,14.77
2022-09-28T08:38:31.354Z,13.27
2022-09-28T08:41:19.476Z,14.60
2022-09-28T08:43:51.405Z,14.27
2022-09-28T08:46:26.479Z,14.70
2022-09-28T08:49:26.480Z,14.03
2022-09-28T08:51:59.653Z,12.87
2022-09-28T08:54:26.372Z,12.80
2022-09-28T08:56:57.053Z,12.73
2022-09-28T08:59:29.362Z,13.23
2022-09-28T09:02:00.843Z,13.40
2022-09-28T09:04:27.875Z,13.57
2022-09-28T09:07:14.294Z,12.70
2022-09-28T09:10:20.821Z,10.63
2022-09-28T09:13:19.625Z,12.33
2022-09-28T09:16:06.574Z,12.20
2022-09-28T09:18:55.552Z,13.23
2022-09-28T09:21:44.315Z,11.03
2022-09-28T09:24:21.534Z,12.37
2022-09-28T09:26:54.053Z,10.33
2022-09-28T09:29:26.710Z,10.00
2022-09-28T09:31:59.725Z,10.10
2022-09-28T09:34:46.766Z,9.23
2022-09-28T09:37:22.530Z,11.23
2022-09-28T09:40:26.425Z,9.10
2022-09-28T09:43:05.842Z,10.10
2022-09-28T09:45:53.985Z,8.17
2022-09-28T09:48:29.930Z,9.43
2022-09-28T09:51:03.169Z,8.00
2022-09-28T09:53:46.664Z,8.97
2022-09-28T09:56:34.665Z,7.90
2022-09-28T09:59:15.734Z,8.13
2022-09-28T10:01:42.442Z,7.67
2022-09-28T10:04:20.079Z,7.07
2022-09-28T10:06:49.852Z,8.30
2022-09-28T10:09:39.222Z,8.63
2022-09-28T10:12:11.116Z,7.50
2022-09-28T10:14:37.900Z,9.40
2022-09-28T10:17:05.216Z,7.27
2022-09-28T10:19:34.331Z,7.87
2022-09-28T10:22:05.942Z,7.67
2022-09-28T10:24:38.924Z,8.37
2022-09-28T10:27:08.577Z,7.03
2022-09-28T10:29:43.770Z,6.23
2022-09-28T10:32:22.279Z,7.10
2022-09-28T10:34:50.970Z,8.67
2022-09-28T10:37:19.014Z,7.40
2022-09-28T10:40:00.317Z,7.37
2022-09-28T10:42:33.201Z,7.87
2022-09-28T10:45:07.465Z,9.90
2022-09-28T10:47:35.590Z,9.17
2022-09-28T10:50:03.162Z,9.87
2022-09-28T10:52:38.865Z,7.73
2022-09-28T10:55:32.588Z,5.73
2022-09-28T10:58:25.163Z,7.87
2022-09-28T11:00:52.924Z,8.43
2022-09-28T11:03:24.660Z,7.33
2022-09-28T11:06:07.589Z,6.67
2022-09-28T11:08:44.626Z,7.70
2022-09-28T11:11:14.631Z,6.03
2022-09-28T11:13:47.889Z,8.30
2022-09-28T11:16:29.894Z,5.57
2022-09-28T11:18:59.361Z,4.70
2022-09-28T11:21:29.381Z,4.20
2022-09-28T11:24:19.321Z,3.90
2022-09-28T11:26:49.584Z,4.20
2022-09-28T11:29:39.211Z,3.80
2022-09-28T11:32:06.692Z,4.70
2022-09-28T11:34:59.150Z,8.60
2022-09-28T11:37:50.972Z,4.13
2022-09-28T11:40:48.033Z,4.07
2022-09-28T11:43:40.678Z,4.70
2022-09-28T11:46:20.988Z,4.23
2022-09-28T11:49:03.931Z,4.07
2022-09-28T11:51:35.640Z,4.40
2022-09-28T11:54:14.574Z,3.60
2022-09-28T11:56:46.066Z,4.27
2022-09-28T11:59:29.016Z,5.10
2022-09-28T12:02:03.581Z,5.47
2022-09-28T12:04:41.924Z,4.40
2022-09-28T12:07:43.749Z,4.87
2022-09-28T12:10:24.601Z,4.83
2022-09-28T12:13:01.221Z,3.83
2022-09-28T12:16:06.861Z,3.23
2022-09-28T12:18:44.702Z,3.60
2022-09-28T12:21:44.962Z,5.10
2022-09-28T12:24:29.359Z,3.73
2022-09-28T12:27:18.579Z,3.00
2022-09-28T12:29:55.121Z,5.60
2022-09-28T12:32:35.714Z,3.03
2022-09-28T12:35:02.814Z,4.07
2022-09-28T12:38:08.716Z,3.03
2022-09-28T12:40:37.404Z,4.17
2022-09-28T12:43:28.964Z,2.63
2022-09-28T12:46:27.846Z,2.50
2022-09-28T12:52:33.046Z,4.10
2022-09-28T12:55:24.464Z,3.77
2022-09-28T12:58:02.807Z,2.20
2022-09-28T13:00:46.710Z,2.93
2022-09-28T13:03:35.160Z,3.43
2022-09-28T13:06:23.636Z,2.40
2022-09-28T13:09:08.810Z,3.30
2022-09-28T13:11:54.547Z,5.70
2022-09-28T13:14:46.260Z,2.83
2022-09-28T13:17:43.489Z,2.87
2022-09-28T13:20:27.674Z,3.63
2022-09-28T13:23:15.872Z,3.67
2022-09-28T13:25:53.194Z,3.00
2022-09-28T13:28:26.293Z,7.73
2022-09-28T13:30:56.720Z,3.13
2022-09-28T13:33:33.972Z,4.73
2022-09-28T13:36:00.859Z,3.87
2022-09-28T13:38:27.365Z,3.70
2022-09-28T13:41:06.273Z,5.33
2022-09-28T13:44:06.745Z,4.27
2022-09-28T13:46:58.877Z,6.80
2022-09-28T13:49:31.228Z,5.60
2022-09-28T13:52:05.944Z,4.50
2022-09-28T13:54:47.610Z,4.37
2022-09-28T13:57:25.448Z,3.53
2022-09-28T14:00:03.682Z,2.90
2022-09-28T14:02:41.613Z,3.50
2022-09-28T14:05:23.239Z,3.67
2022-09-28T14:08:08.476Z,4.57
2022-09-28T14:10:53.038Z,3.03
2022-09-28T14:13:41.278Z,2.50
2022-09-28T14:16:26.853Z,2.33
2022-09-28T14:19:10.323Z,4.70
2022-09-28T14:22:11.386Z,5.37
2022-09-28T14:24:37.994Z,2.70
2022-09-28T14:27:36.320Z,2.40
2022-09-28T14:30:11.868Z,2.07
2022-09-28T14:32:45.305Z,3.53
2022-09-28T14:35:26.216Z,3.73
2022-09-28T14:38:18.004Z,2.23
2022-09-28T14:41:15.420Z,3.53
2022-09-28T14:43:45.128Z,3.40
2022-09-28T14:46:11.879Z,3.93
2022-09-28T14:48:56.295Z,2.80
2022-09-28T14:51:26.329Z,3.97
2022-09-28T14:53:55.012Z,2.30
2022-09-28T14:56:22.063Z,4.77
2022-09-28T14:58:56.205Z,2.20
2022-09-28T15:01:24.993Z,3.00
2022-09-28T15:03:56.191Z,2.63
2022-09-28T15:06:24.270Z,4.10
2022-09-28T15:08:50.950Z,2.53
2022-09-28T15:11:23.687Z,4.77
2022-09-28T15:14:00.204Z,2.13
2022-09-28T15:16:30.729Z,6.00
2022-09-28T15:19:19.517Z,2.40
2022-09-28T15:21:47.793Z,4.23
2022-09-28T15:24:25.792Z,2.20
2022-09-28T15:26:53.396Z,3.13
2022-09-28T15:29:22.933Z,4.67
2022-09-28T15:31:54.186Z,5.27
2022-09-28T15:34:57.021Z,3.70
2022-09-28T15:37:40.300Z,6.27
2022-09-28T15:40:15.196Z,4.17
2022-09-28T15:42:41.915Z,4.17
2022-09-28T15:45:14.307Z,4.63
2022-09-28T15:47:44.968Z,7.23
2022-09-28T15:50:24.669Z,6.07
2022-09-28T15:52:59.251Z,4.10
2022-09-28T15:55:30.775Z,4.30
2022-09-28T15:58:12.545Z,6.87
2022-09-28T16:00:40.336Z,3.80
2022-09-28T16:03:06.917Z,4.00
2022-09-28T16:05:46.894Z,4.87
2022-09-28T16:08:24.839Z,3.90
2022-09-28T16:11:03.250Z,3.93
2022-09-28T16:13:29.861Z,7.53
2022-09-28T16:16:00.292Z,4.43
2022-09-28T16:18:29.652Z,4.73
2022-09-28T16:21:19.116Z,8.83
2022-09-28T16:23:51.800Z,5.60
2022-09-28T16:26:31.235Z,5.60
2022-09-28T16:28:58.881Z,7.60
2022-09-28T16:31:33.953Z,4.80
2022-09-28T16:34:09.546Z,5.73
2022-09-28T16:36:46.265Z,5.93
2022-09-28T16:39:13.930Z,5.43
2022-09-28T16:41:44.251Z,6.83
2022-09-28T16:44:16.937Z,7.40
2022-09-28T16:46:44.933Z,7.43
2022-09-28T16:49:21.235Z,5.40
2022-09-28T16:51:48.394Z,5.83
2022-09-28T16:54:40.652Z,5.90
2022-09-28T16:57:09.849Z,5.23
2022-09-28T16:59:38.495Z,5.93
2022-09-28T17:02:35.423Z,7.47
2022-09-28T17:05:06.358Z,7.07
2022-09-28T17:07:33.440Z,7.37
2022-09-28T17:10:00.037Z,6.43
2022-09-28T17:12:29.060Z,6.17
2022-09-28T17:14:55.543Z,6.77
2022-09-28T17:17:22.784Z,6.13
2022-09-28T17:19:49.441Z,8.17
2022-09-28T17:22:16.894Z,6.93
2022-09-28T17:24:45.626Z,9.17
2022-09-28T17:27:18.835Z,8.97
2022-09-28T17:29:45.472Z,8.87
2022-09-28T17:32:19.032Z,12.27
2022-09-28T17:34:55.796Z,10.73
2022-09-28T17:37:36.303Z,6.87
2022-09-28T17:40:10.860Z,6.83
2022-09-28T17:42:37.613Z,6.43
2022-09-28T17:45:04.584Z,6.63
2022-09-28T17:47:34.317Z,6.73
2022-09-28T17:50:03.533Z,7.53
2022-09-28T17:52:30.136Z,8.77
2022-09-28T17:54:56.700Z,8.27
2022-09-28T17:57:23.342Z,7.40
2022-09-28T17:59:51.204Z,7.20
2022-09-28T18:02:17.865Z,6.73
2022-09-28T18:04:52.601Z,6.87
2022-09-28T18:07:19.440Z,7.67
2022-09-28T18:09:46.026Z,7.53
2022-09-28T18:12:12.883Z,7.00
2022-09-28T18:14:40.141Z,8.07
2022-09-28T18:17:06.917Z,6.27
2022-09-28T18:19:33.715Z,7.40
2022-09-28T18:22:01.640Z,6.60
2022-09-28T18:24:28.438Z,6.93
2022-09-28T18:26:55.313Z,6.67
2022-09-28T18:29:22.242Z,6.33
2022-09-28T18:31:49.005Z,5.33
2022-09-28T18:34:15.938Z,5.30
2022-09-28T18:36:42.848Z,8.67
2022-09-28T18:39:09.527Z,5.70
2022-09-28T18:41:36.350Z,5.70
2022-09-28T18:44:02.973Z,6.03
2022-09-28T18:46:36.317Z,8.33
2022-09-28T18:49:04.621Z,8.13
2022-09-28T18:51:31.376Z,6.73
2022-09-28T18:53:57.931Z,9.00
2022-09-28T18:56:24.775Z,6.97
2022-09-28T18:58:52.817Z,5.93
2022-09-28T19:01:36.307Z,7.23
2022-09-28T19:04:05.980Z,8.00
2022-09-28T19:06:34.717Z,7.03
2022-09-28T19:09:01.598Z,6.07
2022-09-28T19:11:28.794Z,9.67
2022-09-28T19:13:55.958Z,9.50
2022-09-28T19:16:28.861Z,7.97
2022-09-28T19:18:57.153Z,7.03
2022-09-28T19:21:23.728Z,7.77
2022-09-28T19:23:50.748Z,8.13
2022-09-28T19:26:21.128Z,8.50
2022-09-28T19:28:48.564Z,8.63
2022-09-28T19:31:16.047Z,7.83
2022-09-28T19:33:46.718Z,8.07
2022-09-28T19:36:18.828Z,7.83
2022-09-28T19:38:46.578Z,9.80
2022-09-28T19:41:35.877Z,8.63
2022-09-28T19:44:08.640Z,9.40
2022-09-28T19:46:37.866Z,9.40
2022-09-28T19:49:10.335Z,10.20
2022-09-28T19:51:46.919Z,10.73
2022-09-28T19:54:32.062Z,10.00
2022-09-28T19:57:07.822Z,12.27
2022-09-28T19:59:36.855Z,13.97
2022-09-28T20:02:05.743Z,11.77
2022-09-28T20:04:32.758Z,11.93
2022-09-28T20:06:59.572Z,13.70
2022-09-28T20:09:26.339Z,13.77
2022-09-28T20:11:53.294Z,12.63
2022-09-28T20:14:22.385Z,12.43
2022-09-28T20:16:51.744Z,14.03
2022-09-28T20:19:21.469Z,14.77
2022-09-28T20:21:48.402Z,15.30
2022-09-28T20:24:17.104Z,15.13
2022-09-28T20:26:44.883Z,18.60
2022-09-28T20:29:12.069Z,16.47
2022-09-28T20:31:39.135Z,20.17
2022-09-28T20:34:06.566Z,21.90
2022-09-28T20:36:34.039Z,22.37
2022-09-28T20:39:04.932Z,24.10
2022-09-28T20:41:36.614Z,20.50
2022-09-28T20:44:06.305Z,21.63
2022-09-28T20:46:34.957Z,22.97
2022-09-28T20:49:02.087Z,24.90
2022-09-28T20:51:28.742Z,24.43
2022-09-28T20:53:57.014Z,25.97
2022-09-28T20:56:31.664Z,24.77
2022-09-28T20:58:58.431Z,25.57
2022-09-28T21:01:26.946Z,25.70
2022-09-28T21:04:04.594Z,27.57
2022-09-28T21:06:34.111Z,25.37
2022-09-28T21:09:00.995Z,24.07
2022-09-28T21:11:29.680Z,28.37
2022-09-28T21:14:01.849Z,28.50
2022-09-28T21:16:32.384Z,26.10
2022-09-28T21:18:59.688Z,25.97
2022-09-28T21:21:27.247Z,27.90
2022-09-28T21:23:54.962Z,31.23
2022-09-28T21:26:27.537Z,31.10
2022-09-28T21:28:55.790Z,30.00
2022-09-28T21:31:28.537Z,29.40
2022-09-28T21:33:56.293Z,29.73
2022-09-28T21:36:23.059Z,31.47
2022-09-28T21:38:49.679Z,31.97
2022-09-28T21:41:16.535Z,34.10
2022-09-28T21:43:43.302Z,29.57
2022-09-28T21:46:10.087Z,31.03
2022-09-28T21:48:36.834Z,29.97
2022-09-28T21:51:06.060Z,32.90
2022-09-28T21:53:34.977Z,32.30
2022-09-28T21:56:03.007Z,30.07
2022-09-28T21:58:31.550Z,32.13
2022-09-28T22:01:05.663Z,31.67
2022-09-28T22:03:33.354Z,32.87
2022-09-28T22:05:59.964Z,36.23
2022-09-28T22:08:27.097Z,30.17
2022-09-28T22:11:03.417Z,32.90
2022-09-28T22:13:31.787Z,31.30
2022-09-28T22:15:58.923Z,30.60
2022-09-28T22:18:27.636Z,30.47
2022-09-28T22:21:15.715Z,37.67
2022-09-28T22:23:42.862Z,31.20
2022-09-28T22:26:19.121Z,36.80
2022-09-28T22:28:52.151Z,34.13
2022-09-28T22:31:21.893Z,31.63
2022-09-28T22:33:48.827Z,36.20
2022-09-28T22:36:17.024Z,34.43
2022-09-28T22:38:44.701Z,32.73
2022-09-28T22:41:11.727Z,33.23
2022-09-28T22:43:38.364Z,31.33
2022-09-28T22:46:10.592Z,33.90
2022-09-28T22:48:37.813Z,35.30
2022-09-28T22:51:06.477Z,36.73
2022-09-28T22:53:34.336Z,36.53
2022-09-28T22:56:05.828Z,36.37
2022-09-28T22:58:34.179Z,37.53
2022-09-28T23:01:08.054Z,35.43
2022-09-28T23:03:35.045Z,35.70
2022-09-28T23:06:01.845Z,35.77
2022-09-28T23:08:28.535Z,32.43
2022-09-28T23:10:55.171Z,32.13
2022-09-28T23:13:21.710Z,35.33
2022-09-28T23:15:58.482Z,33.90
2022-09-28T23:18:27.404Z,36.93
2022-09-28T23:20:55.913Z,39.23
2022-09-28T23:23:23.057Z,32.27
2022-09-28T23:25:50.391Z,30.87
2022-09-28T23:28:17.627Z,27.87
2022-09-28T23:30:44.167Z,29.87
2022-09-28T23:33:18.936Z,28.37
2022-09-28T23:35:46.010Z,27.73
2022-09-28T23:38:14.810Z,28.33
2022-09-28T23:40:41.655Z,29.67
2022-09-28T23:43:08.766Z,30.63
2022-09-28T23:45:35.416Z,31.30
2022-09-28T23:48:02.337Z,33.27
2022-09-28T23:50:29.064Z,30.83
2022-09-28T23:52:55.740Z,31.43
2022-09-28T23:55:22.996Z,32.13
2022-09-28T23:57:49.573Z,32.93
